Time;durP1;ratioP1;P1;durP2;ratioP2;P2;SDS_P1;SDS_P2;PMS_P1;PMS_P2;Temp;Humidity;BMP_temperature;BMP_pressure;BME280_temperature;BME280_humidity;BME280_pressure;Samples;Min_cycle;Max_cycle;Signal;HPM_P1;HPM_P2
2023/02/25 01:26:03;;;;;;;0.10;0.10;;;4.90;99.90;;;;;;6146004;23;20028;-89
2023/02/25 01:28:30;;;;;;;0.10;0.10;;;;;;;;;;6176849;23;20076;-91
2023/02/25 01:30:55;;;;;;;0.10;0.10;;;4.90;99.90;;;;;;6178570;23;20001;-91
2023/02/25 01:33:20;;;;;;;0.10;0.10;;;6.40;99.90;;;;;;6176617;23;20413;-90
2023/02/25 01:35:46;;;;;;;0.08;0.08;;;;;;;;;;6176219;23;20088;-90
2023/02/25 01:41:04;;;;;;;0.10;0.10;;;;;;;;;;6142153;23;20018;-90
2023/02/25 01:46:56;;;;;;;0.10;0.10;;;;;;;;;;6169915;23;20041;-91
2023/02/25 01:49:51;;;;;;;0.10;0.10;;;4.80;99.90;;;;;;6175942;23;20010;-91
2023/02/25 01:52:41;;;;;;;0.10;0.10;;;4.70;99.90;;;;;;6176230;23;20029;-91
2023/02/25 01:55:13;;;;;;;0.10;0.10;;;4.70;99.90;;;;;;6201518;23;20008;-93
2023/02/25 01:57:39;;;;;;;0.10;0.10;;;;;;;;;;6201064;23;20005;-90
2023/02/25 02:00:28;;;;;;;0.10;0.10;;;4.90;99.90;;;;;;6176985;23;20008;-91
2023/02/25 02:02:58;;;;;;;0.00;0.00;;;4.90;99.90;;;;;;6168159;23;20001;-90
2023/02/25 02:05:37;;;;;;;0.10;0.10;;;4.90;99.90;;;;;;6176166;23;20009;-90
2023/02/25 02:08:49;;;;;;;0.00;0.00;;;4.90;99.90;;;;;;6176278;23;20016;-90
2023/02/25 02:11:15;;;;;;;0.10;0.10;;;4.80;99.90;;;;;;6194991;23;20043;-90
2023/02/25 02:14:11;;;;;;;0.10;0.10;;;4.90;99.90;;;;;;6151633;23;20009;-91
2023/02/25 02:17:28;;;;;;;0.10;0.10;;;4.90;99.90;;;;;;6175650;23;20001;-90
2023/02/25 02:20:12;;;;;;;0.10;0.10;;;5.00;99.90;;;;;;6115663;23;20010;-91
2023/02/25 02:26:44;;;;;;;0.10;0.10;;;5.00;99.90;;;;;;6177017;23;20064;-91
2023/02/25 02:29:48;;;;;;;0.10;0.10;;;5.00;99.90;;;;;;6175069;23;20029;-91
2023/02/25 02:32:38;;;;;;;0.10;0.10;;;5.00;99.90;;;;;;6153287;23;20006;-90
2023/02/25 02:39:18;;;;;;;0.10;0.10;;;4.80;99.90;;;;;;6177324;23;20013;-90
2023/02/25 02:49:38;;;;;;;0.10;0.10;;;4.50;99.90;;;;;;6057207;23;20047;-89
2023/02/25 02:52:18;;;;;;;0.10;0.10;;;4.50;99.90;;;;;;6058235;23;20016;-91
2023/02/25 02:55:23;;;;;;;0.17;0.17;;;4.60;99.90;;;;;;6091314;23;20045;-89
2023/02/25 02:57:53;;;;;;;0.10;0.10;;;4.70;99.90;;;;;;6175019;23;19997;-90
2023/02/25 03:08:12;;;;;;;0.10;0.10;;;4.70;99.90;;;;;;6087013;23;20074;-90
2023/02/25 03:11:21;;;;;;;0.10;0.10;;;4.70;99.90;;;;;;6062628;23;20003;-90
2023/02/25 03:13:47;;;;;;;0.10;0.10;;;;;;;;;;6063671;23;20003;-91
2023/02/25 03:16:21;;;;;;;0.10;0.10;;;4.70;99.90;;;;;;6062599;23;19991;-92
2023/02/25 03:30:00;;;;;;;0.00;0.00;;;4.60;99.90;;;;;;6117251;23;20039;-89
2023/02/25 03:33:00;;;;;;;0.10;0.10;;;4.60;99.90;;;;;;6158827;23;20055;-91
2023/02/25 03:42:15;;;;;;;0.10;0.10;;;4.70;99.90;;;;;;6178619;23;20085;-90
2023/02/25 03:44:45;;;;;;;0.10;0.10;;;4.60;99.90;;;;;;6154056;23;20006;-89
2023/02/25 03:47:14;;;;;;;0.10;0.10;;;4.60;99.90;;;;;;6176059;23;20006;-90
2023/02/25 03:49:49;;;;;;;0.10;0.10;;;4.60;99.90;;;;;;6151352;23;20005;-90
2023/02/25 04:57:26;;;;;;;0.20;0.20;;;;;;;;;;6138843;23;20099;-90
2023/02/25 04:59:52;;;;;;;0.10;0.10;;;;;;;;;;6175885;23;20010;-90
2023/02/25 05:02:17;;;;;;;0.10;0.10;;;;;;;;;;6174265;23;20008;-87
2023/02/25 05:04:43;;;;;;;0.10;0.10;;;;;;;;;;6176065;23;20386;-89
2023/02/25 05:07:09;;;;;;;0.10;0.10;;;;;;;;;;6176458;23;20052;-89
2023/02/25 05:09:35;;;;;;;0.10;0.10;;;;;;;;;;6149815;23;20509;-89
2023/02/25 05:14:46;;;;;;;0.10;0.10;;;4.00;99.90;;;;;;6170550;23;20017;-90
2023/02/25 05:18:12;;;;;;;0.10;0.10;;;3.90;99.90;;;;;;6177408;23;20006;-90
2023/02/25 05:24:11;;;;;;;0.00;0.00;;;3.90;99.90;;;;;;6177826;23;20069;-90
2023/02/25 05:26:53;;;;;;;0.10;0.10;;;;;;;;;;6200659;23;19985;-89
2023/02/25 05:36:23;;;;;;;0.10;0.10;;;3.70;99.90;;;;;;6123646;23;20028;-90
2023/02/25 05:39:36;;;;;;;0.10;0.10;;;3.80;99.90;;;;;;6174847;23;20005;-90
2023/02/25 05:42:07;;;;;;;0.10;0.10;;;3.90;99.90;;;;;;6198755;23;20068;-90
2023/02/25 05:44:58;;;;;;;0.10;0.10;;;4.10;99.90;;;;;;6201004;23;19997;-89
2023/02/25 05:48:05;;;;;;;0.10;0.10;;;3.80;99.90;;;;;;6175792;23;20008;-91
2023/02/25 05:51:34;;;;;;;0.10;0.10;;;3.80;99.90;;;;;;6201079;23;20080;-90
2023/02/25 05:54:53;;;;;;;0.10;0.10;;;3.70;99.90;;;;;;6176303;23;20009;-89
2023/02/25 05:58:06;;;;;;;0.10;0.10;;;3.50;99.90;;;;;;6200356;23;20073;-89
2023/02/25 06:08:25;;;;;;;0.10;0.10;;;3.50;99.90;;;;;;6177115;23;20004;-91
2023/02/25 06:14:16;;;;;;;0.10;0.10;;;3.60;99.90;;;;;;6177207;23;20029;-90
2023/02/25 06:16:43;;;;;;;0.10;0.10;;;;;;;;;;6201615;23;20029;-90
2023/02/25 06:19:31;;;;;;;0.10;0.10;;;;;;;;;;6097090;23;20017;-90
2023/02/25 06:22:12;;;;;;;0.10;0.10;;;3.50;99.90;;;;;;6093300;23;20002;-92
2023/02/25 22:34:18;;;;;;;0.10;0.10;;;0.80;99.90;;;;;;6159340;23;20120;-90
2023/02/25 22:37:08;;;;;;;0.10;0.10;;;;;;;;;;6170408;23;20049;-91
2023/02/25 22:40:54;;;;;;;0.00;0.00;;;0.60;99.90;;;;;;6082639;23;20115;-90
2023/02/25 22:44:15;;;;;;;0.10;0.10;;;0.80;99.90;;;;;;6024910;23;20127;-90
2023/02/25 22:47:19;;;;;;;0.10;0.10;;;0.60;99.90;;;;;;5887007;24;20154;-89
